»·PEaware :: N48427 KAVX-KSAN

N48427 :: KAVX-KSAN

FLIGHT INFORMATION

Flight Status: Arrived
Operator: Privately registered:
United States
More flights under this callsign
Pilot: Brian D. (22974)
Aircraft: Unknown
(P28U)
More flights by this aircraft type
Origin: KAVX Catalina
United States
Destination: KSAN San Diego Intl-Lindbergh
United States
More flights between these airports :: More routes between these airports
Route: SXC V208 OCN V23 MZB
File this flight plan on PilotEdge
Remarks: CSTP56 I-8 test
Altitude:
(Current/Filed)
5,000ft
Speed:
(Current/Filed)
120kts
Departed: 10-Jan-20 07:59 PM
Arrived: 10-Jan-20 08:55 PM
Distance/Time
Traveled:
74nm/0:56
Distance/Time
To Go:
Arrived

Flight Plot

Page will automatically refresh every two minutes.


Map Options




Map Legend


Flown Route
Filed Route
Departure Airport
Arrival Airport
Navaid (VOR, NDB)
Fix

Horizontal Profiles

Position Reports

Time Latitude Longitude Heading Altitude Ground
Speed
10-Jan-20 19:48 33.403232 -118.415823 339 1605ft 0kts
10-Jan-20 19:49 33.403232 -118.415823 339 1605ft 0kts
10-Jan-20 19:50 33.403232 -118.415823 339 1605ft 0kts
10-Jan-20 19:51 33.403232 -118.415823 339 1605ft 0kts
10-Jan-20 19:52 33.403232 -118.415823 339 1605ft 0kts
10-Jan-20 19:53 33.403232 -118.415823 339 1605ft 0kts
10-Jan-20 19:54 33.403232 -118.415823 339 1605ft 0kts
10-Jan-20 19:55 33.404456 -118.415059 350 1605ft 0kts
10-Jan-20 19:56 33.405003 -118.414971 32 1605ft 13kts
10-Jan-20 19:57 33.407218 -118.411366 35 1605ft 0kts
10-Jan-20 19:58 33.400461 -118.423060 235 1786ft 93kts
10-Jan-20 19:59 33.379509 -118.418781 133 2675ft 115kts
10-Jan-20 20:00 33.368624 -118.382578 102 3435ft 121kts
10-Jan-20 20:01 33.361644 -118.342362 104 3824ft 123kts
10-Jan-20 20:02 33.355189 -118.301663 98 4105ft 124kts
10-Jan-20 20:03 33.349322 -118.260553 102 4371ft 125kts
10-Jan-20 20:04 33.342151 -118.219339 91 4620ft 126kts
10-Jan-20 20:05 33.340110 -118.176743 98 4853ft 127kts
10-Jan-20 20:06 33.333438 -118.134599 96 5055ft 130kts
10-Jan-20 20:07 33.330177 -118.089816 100 5064ft 137kts
10-Jan-20 20:08 33.321709 -118.044866 106 5036ft 138kts
10-Jan-20 20:09 33.314628 -117.999915 94 5038ft 135kts
10-Jan-20 20:10 33.312395 -117.955100 89 5039ft 133kts
10-Jan-20 20:11 33.307633 -117.911233 94 5039ft 131kts
10-Jan-20 20:12 33.302085 -117.868680 94 5037ft 124kts
10-Jan-20 20:13 33.296727 -117.828650 94 5037ft 119kts
10-Jan-20 20:14 33.291814 -117.791578 94 5037ft 118kts
10-Jan-20 20:15 33.286451 -117.749539 94 5039ft 131kts
10-Jan-20 20:16 33.281286 -117.707295 94 5038ft 126kts
10-Jan-20 20:17 33.276259 -117.665470 93 5038ft 125kts
10-Jan-20 20:18 33.271106 -117.624124 94 5038ft 126kts
10-Jan-20 20:19 33.265679 -117.582643 94 5038ft 126kts
10-Jan-20 20:20 33.260244 -117.541418 94 5036ft 126kts
10-Jan-20 20:21 33.254652 -117.499516 94 5035ft 127kts
10-Jan-20 20:22 33.249023 -117.457726 93 5033ft 127kts
10-Jan-20 20:23 33.240786 -117.416885 133 5027ft 135kts
10-Jan-20 20:24 33.205136 -117.400846 159 5031ft 137kts
10-Jan-20 20:25 33.169091 -117.386190 159 5031ft 137kts
10-Jan-20 20:26 33.133189 -117.370706 158 5030ft 137kts
10-Jan-20 20:27 33.097153 -117.354995 158 5030ft 138kts
10-Jan-20 20:28 33.062556 -117.339684 158 5029ft 137kts
10-Jan-20 20:29 33.027097 -117.323743 158 5030ft 136kts
10-Jan-20 20:30 32.992182 -117.307792 158 5030ft 136kts
10-Jan-20 20:31 32.957130 -117.291500 158 5030ft 136kts
10-Jan-20 20:32 32.922162 -117.275010 157 5030ft 136kts
10-Jan-20 20:33 32.889599 -117.259509 157 5027ft 136kts
10-Jan-20 20:34 32.856328 -117.243498 153 5025ft 137kts
10-Jan-20 20:35 32.838824 -117.207764 111 5027ft 132kts
10-Jan-20 20:36 32.823149 -117.168523 111 5027ft 132kts
10-Jan-20 20:37 32.807055 -117.128065 111 5028ft 132kts
10-Jan-20 20:38 32.792658 -117.089260 107 5029ft 130kts
10-Jan-20 20:39 32.780100 -117.049867 106 5031ft 130kts
10-Jan-20 20:40 32.767741 -117.009962 106 5032ft 130kts
10-Jan-20 20:41 32.756121 -116.971375 106 5033ft 129kts
10-Jan-20 20:42 32.744567 -116.931932 106 5033ft 129kts
10-Jan-20 20:43 32.732961 -116.891183 106 5033ft 128kts
10-Jan-20 20:44 32.702124 -116.877930 180 4896ft 134kts
10-Jan-20 20:45 32.673794 -116.898758 250 4190ft 138kts
10-Jan-20 20:46 32.669559 -116.943870 286 3161ft 133kts
10-Jan-20 20:47 32.677197 -116.978461 289 3501ft 101kts
10-Jan-20 20:48 32.687677 -117.012428 294 3116ft 127kts
10-Jan-20 20:49 32.698875 -117.053454 287 2497ft 130kts
10-Jan-20 20:50 32.708146 -117.090859 287 2038ft 129kts
10-Jan-20 20:51 32.718663 -117.126308 286 1439ft 129kts
10-Jan-20 20:52 32.725368 -117.155476 286 715ft 85kts
10-Jan-20 20:53 32.731569 -117.181704 286 76ft 78kts
10-Jan-20 20:54 32.734303 -117.192724 286 20ft 11kts
10-Jan-20 20:55 32.734208 -117.194954 246 20ft 3kts
10-Jan-20 20:56 32.733194 -117.192437 106 20ft 13kts
10-Jan-20 20:57 32.734819 -117.190521 67 20ft 11kts
10-Jan-20 20:58 32.734047 -117.186919 105 20ft 14kts
10-Jan-20 20:59 32.732806 -117.181808 106 20ft 17kts
10-Jan-20 21:00 32.732131 -117.177423 43 20ft 7kts
10-Jan-20 21:01 32.732420 -117.177770 264 20ft 0kts
10-Jan-20 21:02 32.732420 -117.177770 264 20ft 0kts
10-Jan-20 21:03 32.732420 -117.177770 264 20ft 0kts
10-Jan-20 21:04 32.732420 -117.177770 264 20ft 0kts
10-Jan-20 21:05 32.732420 -117.177770 264 20ft 0kts
10-Jan-20 21:06 32.732420 -117.177770 264 20ft 0kts
10-Jan-20 21:07 32.732420 -117.177770 264 20ft 0kts
10-Jan-20 21:08 32.732420 -117.177770 264 20ft 0kts
10-Jan-20 21:09 32.732420 -117.177770 264 20ft 0kts

Navigation Log

Ident Type
Flight plan parsing failed, navigation log unavailable